РУС

ENG

 
  Pireps - S7
 

Рейс SBI1058

  • Выполнял: Dmitry Schcurov
  • Аэропорт отправления: Kazan Mezhdunarodniy (UWKD)
  • Аэропорт назначения: Domodedovo Airport (UUDD)
  • Тип ВС: E170 (VQ-BYA)
  • Время полёта: 03.49
  • Дата полёта: 18.04.2020
  • Маршрут: MISMI R301 UW R493 OK R834 MF ITINA RW GEKLA
  • Статус: Одобрен

Детали полёта
Gross Revenue:
(65 load / $ 0.00 per unit
$ 0.00
Fuel Cost:
(2058 fuel used @ 5.1 / unit)
$ 10, 495.80


Дополнительная информация о полёте:

Лог

Aircraft Used in flight is Embraer 170 Air Canada
22:05 Beacon Lights ON at 420 AGL
22:05 Brakes are Released
22:05 Pushing back
22:06 Engine 1 Started
22:06 Brakes are On
22:06 Engine 2 Started
22:07Flaps 1 Selected at 420ft and 0kts
22:07Flaps 2 Selected at 420ft and 0kts
22:08 Brakes are Released
22:08 Taxi Lights ON at 420 AGL
22:13 Strobe Lights ON at 420 AGL
22:13 Landing Lights ON at 420 AGL
22:13 Taxi Lights OFF at 420 AGL
22:14 You Took off @ 147 Knots and Flaps at Position 2
Departure Weather
UWKD 181900Z 21003MPS CAVOK 02/00 Q1007 R29/2/0050 NOSIG RMK QFE744/0992
22:14 Landing Gear Up @ 159 Knots and 510 Feet
22:15Flaps 1 Selected at 4560ft and 194kts
22:15Flaps Retracted at 5130ft and 211kts
22:17 Landing Lights OFF at 9460 AGL
23:15 Landing Lights ON at 9450 AGL
23:19Flaps 1 Selected at 4430ft and 207kts
23:19Flaps 2 Selected at 3760ft and 192kts
23:20Flaps 3 Selected at 3420ft and 186kts
23:22 Landing Gear Down @ 152 Knots and 3000 Feet
23:22Flaps 4 Selected at 2980ft and 150kts
23:22Flaps 5 Selected at 2340ft and 147kts
23:23Flaps 6 Selected at 2100ft and 146kts
23:24 You Landed @ 124 Knots and with -150 Vertical Speed
Arrival Weather
UUDD 181830Z 25003MPS 210V280 9999 FEW046 02/M01 Q1007 R88/CLRD60 NOSIG
23:25 Taxiing to gate
23:25Flaps Retracted at 600ft and 20kts
23:25 Landing Lights OFF at 600 AGL
23:25 Taxi Lights ON at 600 AGL
23:25 Strobe Lights OFF at 600 AGL
23:27 Brakes are On
23:27 Taxi Lights OFF at 600 AGL
23:27 Beacon Lights OFF at 600 AGL
23:27 Engine 1 Stoped
23:27 Engine 2 Stoped
Pirep logged with S7 Tracking 1.0.0.14



Общая оценка полета : 100%




Route Map



 
 
   
 
Новости

23.01.2020 - Работа сайта!

Друзья! 
После долгого перерыва работы сайта - мы занялись его оживлением.
Были жалобы, что не работала регистрация. Теперь работает!
Будут исправляться другие моменты и функционал снова будет доступен в полном объеме.
От лица администрации сайта и компании - приносим свои извинения за неудобства!
Добро пожаловать в S7!

   
 
Авторизация






Регистрация

Восстановить пароль?

Мы в соц. сетях

      



   
 





   
 


   
 


Яндекс.Метрика

www.va-s7.ru 2011-2020
Все права защищены.



Минуточку внимания!
Мы не имеем отношения к торговым маркам "S7" и "Globus" и их представителям.
Эмблемы на сайте являются собственностью соответствующих компаний.

аэронавигационная метеорологическая и любая другая информация с данного ресурса ни в коем случае не должна использоваться для реальных полетов